createdAt,value
2023-05-19T00:00:14.761Z,14949.00
2023-05-19T00:01:14.755Z,14889.00
2023-05-19T00:02:14.801Z,14891.00
2023-05-19T00:03:14.961Z,14886.00
2023-05-19T00:04:14.861Z,14905.00
2023-05-19T00:05:14.929Z,14830.00
2023-05-19T00:06:15.115Z,14681.00
2023-05-19T00:07:15.024Z,14644.00
2023-05-19T00:08:15.061Z,14677.00
2023-05-19T00:09:15.988Z,14810.00
2023-05-19T00:10:15.112Z,14772.00
2023-05-19T00:11:15.133Z,14775.00
2023-05-19T00:12:15.134Z,14795.00
2023-05-19T00:13:15.123Z,14849.00
2023-05-19T00:14:15.113Z,14943.00
2023-05-19T00:15:15.098Z,15025.00
2023-05-19T00:16:15.166Z,15038.00
2023-05-19T00:17:15.106Z,15070.00
2023-05-19T00:18:15.180Z,15072.00
2023-05-19T00:19:15.127Z,15035.00
2023-05-19T00:20:15.095Z,15046.00
2023-05-19T00:21:15.117Z,15022.00
2023-05-19T00:22:15.114Z,15094.00
2023-05-19T00:23:15.120Z,15093.00
2023-05-19T00:24:15.121Z,15127.00
2023-05-19T00:25:15.127Z,15106.00
2023-05-19T00:26:15.184Z,15135.00
2023-05-19T00:27:15.239Z,15073.00
2023-05-19T00:28:15.296Z,15073.00
2023-05-19T00:29:15.361Z,15093.00
2023-05-19T00:30:15.460Z,15131.00
2023-05-19T00:31:15.535Z,15159.00
2023-05-19T00:32:15.610Z,15154.00
2023-05-19T00:33:15.551Z,15174.00
2023-05-19T00:34:15.543Z,15272.00
2023-05-19T00:35:15.592Z,15322.00
2023-05-19T00:36:15.697Z,15364.00
2023-05-19T00:37:15.715Z,15389.00
2023-05-19T00:38:15.739Z,15349.00
2023-05-19T00:39:16.530Z,15350.00
2023-05-19T00:40:15.818Z,15419.00
2023-05-19T00:41:15.908Z,15436.00
2023-05-19T00:42:15.983Z,15488.00
2023-05-19T00:43:16.011Z,15479.00
2023-05-19T00:44:16.057Z,15481.00
2023-05-19T00:45:16.092Z,15467.00
2023-05-19T00:46:16.179Z,15472.00
2023-05-19T00:47:16.243Z,15415.00
2023-05-19T00:48:16.318Z,15371.00
2023-05-19T00:49:16.361Z,15351.00
2023-05-19T00:50:16.421Z,15306.00
2023-05-19T00:51:16.427Z,15249.00
2023-05-19T00:52:16.459Z,15192.00
2023-05-19T00:53:16.496Z,15099.00
2023-05-19T00:54:16.570Z,15049.00
2023-05-19T00:55:16.624Z,15035.00
2023-05-19T00:56:16.659Z,14962.00
2023-05-19T00:57:16.634Z,14922.00
2023-05-19T00:58:16.685Z,14871.00
2023-05-19T00:59:16.678Z,14871.00
2023-05-19T01:00:16.718Z,14916.00
2023-05-19T01:01:16.835Z,14989.00
2023-05-19T01:02:16.854Z,15037.00
2023-05-19T01:03:16.952Z,15043.00
2023-05-19T01:04:16.997Z,15046.00
2023-05-19T01:05:17.078Z,15046.00
2023-05-19T01:06:17.137Z,15008.00
2023-05-19T01:07:17.209Z,14898.00
2023-05-19T01:08:17.276Z,14850.00
2023-05-19T01:09:17.295Z,14835.00
2023-05-19T01:10:17.315Z,14812.00
2023-05-19T01:11:17.506Z,14829.00
2023-05-19T01:12:17.414Z,14841.00
2023-05-19T01:13:17.483Z,14849.00
2023-05-19T01:14:17.580Z,14805.00
2023-05-19T01:15:17.676Z,14794.00
2023-05-19T01:16:17.696Z,14794.00
2023-05-19T01:17:17.695Z,14844.00
2023-05-19T01:18:17.722Z,14863.00
2023-05-19T01:19:17.831Z,14850.00
2023-05-19T01:20:17.808Z,14831.00
2023-05-19T01:21:17.805Z,14819.00
2023-05-19T01:22:17.872Z,14770.00
2023-05-19T01:23:17.923Z,14729.00
2023-05-19T01:24:17.989Z,14686.00
2023-05-19T01:25:17.992Z,14593.00
2023-05-19T01:26:18.025Z,14538.00
2023-05-19T01:27:18.052Z,14505.00
2023-05-19T01:28:18.106Z,14502.00
2023-05-19T01:29:18.128Z,14502.00
2023-05-19T01:30:18.143Z,14521.00
2023-05-19T01:31:18.246Z,14541.00
2023-05-19T01:32:18.262Z,14529.00
2023-05-19T01:33:18.333Z,14521.00
2023-05-19T01:34:18.408Z,14520.00
2023-05-19T01:35:18.448Z,14507.00
2023-05-19T01:36:19.034Z,14615.00
2023-05-19T01:37:18.576Z,14612.00
2023-05-19T01:38:18.589Z,14591.00
2023-05-19T01:39:18.627Z,14521.00
2023-05-19T01:40:18.652Z,14491.00
2023-05-19T01:41:18.696Z,14470.00
2023-05-19T01:42:18.770Z,14459.00
2023-05-19T01:43:18.821Z,14478.00
2023-05-19T01:44:18.889Z,14485.00
2023-05-19T01:45:18.970Z,14523.00
2023-05-19T01:46:19.109Z,14532.00
2023-05-19T01:47:19.106Z,14567.00
2023-05-19T01:48:19.152Z,14536.00
2023-05-19T01:49:19.209Z,14526.00
2023-05-19T01:50:19.284Z,14550.00
2023-05-19T01:51:19.314Z,14561.00
2023-05-19T01:52:19.361Z,14604.00
2023-05-19T01:53:19.348Z,14628.00
2023-05-19T01:54:19.375Z,14612.00
2023-05-19T01:55:19.403Z,14589.00
2023-05-19T01:56:19.429Z,14563.00
2023-05-19T01:57:19.468Z,14551.00
2023-05-19T01:58:19.498Z,14521.00
2023-05-19T01:59:19.537Z,14494.00
2023-05-19T02:00:21.234Z,14504.00
2023-05-19T02:01:19.585Z,14493.00
2023-05-19T02:02:19.614Z,14511.00
2023-05-19T02:03:19.760Z,14526.00
2023-05-19T02:04:19.845Z,14547.00
2023-05-19T02:05:19.807Z,14562.00
2023-05-19T02:06:19.878Z,14544.00
2023-05-19T02:07:19.926Z,14534.00
2023-05-19T02:08:19.970Z,14509.00
2023-05-19T02:09:19.993Z,14454.00
2023-05-19T02:10:20.069Z,14405.00
2023-05-19T02:11:20.159Z,14343.00
2023-05-19T02:12:20.226Z,14318.00
2023-05-19T02:13:20.240Z,14306.00
2023-05-19T02:14:20.283Z,14310.00
2023-05-19T02:15:20.317Z,14284.00
2023-05-19T02:16:20.455Z,14256.00
2023-05-19T02:17:20.428Z,14191.00
2023-05-19T02:18:20.411Z,14145.00
2023-05-19T02:19:20.515Z,14195.00
2023-05-19T02:20:20.468Z,14221.00
2023-05-19T02:21:20.524Z,14229.00
2023-05-19T02:22:20.531Z,14222.00
2023-05-19T02:23:20.572Z,14267.00
2023-05-19T02:24:20.592Z,14327.00
2023-05-19T02:25:20.634Z,14313.00
2023-05-19T02:26:20.673Z,14294.00
2023-05-19T02:27:20.709Z,14270.00
2023-05-19T02:28:20.766Z,14274.00
2023-05-19T02:29:20.757Z,14325.00
2023-05-19T02:30:20.941Z,14370.00
2023-05-19T02:31:20.833Z,14380.00
2023-05-19T02:32:20.831Z,14359.00
2023-05-19T02:33:20.850Z,14388.00
2023-05-19T02:34:21.515Z,14441.00
2023-05-19T02:35:20.999Z,14550.00
2023-05-19T02:36:21.075Z,14600.00
2023-05-19T02:37:21.140Z,14631.00
2023-05-19T02:38:21.162Z,14640.00
2023-05-19T02:39:21.193Z,14566.00
2023-05-19T02:40:21.207Z,14570.00
2023-05-19T02:41:21.245Z,14603.00
2023-05-19T02:42:21.280Z,14626.00
2023-05-19T02:43:21.367Z,14535.00
2023-05-19T02:44:21.355Z,14508.00
2023-05-19T02:45:21.360Z,14490.00
2023-05-19T02:46:21.584Z,14433.00
2023-05-19T02:47:21.478Z,14384.00
2023-05-19T02:48:21.502Z,14363.00
2023-05-19T02:49:21.521Z,14323.00
2023-05-19T02:50:21.565Z,14333.00
2023-05-19T02:51:21.599Z,14380.00
2023-05-19T02:52:21.675Z,14433.00
2023-05-19T02:53:21.743Z,14464.00
2023-05-19T02:54:21.808Z,14460.00
2023-05-19T02:55:21.889Z,14462.00
2023-05-19T02:56:21.924Z,14471.00
2023-05-19T02:57:21.988Z,14464.00
2023-05-19T02:58:22.050Z,14443.00
2023-05-19T02:59:21.992Z,14412.00
2023-05-19T03:00:22.041Z,14387.00
2023-05-19T03:01:22.142Z,14360.00
2023-05-19T03:02:22.132Z,14357.00
2023-05-19T03:03:22.242Z,14418.00
2023-05-19T03:04:22.201Z,14377.00
2023-05-19T03:05:22.273Z,14253.00
2023-05-19T03:06:22.255Z,14116.00
2023-05-19T03:07:22.279Z,13988.00
2023-05-19T03:08:22.301Z,13979.00
2023-05-19T03:09:22.320Z,13982.00
2023-05-19T03:10:22.379Z,13945.00
2023-05-19T03:11:22.382Z,13865.00
2023-05-19T03:12:22.418Z,13841.00
2023-05-19T03:13:22.436Z,13862.00
2023-05-19T03:14:22.465Z,13954.00
2023-05-19T03:15:22.508Z,14032.00
2023-05-19T03:16:22.596Z,14087.00
2023-05-19T03:17:22.631Z,14095.00
2023-05-19T03:18:22.626Z,14094.00
2023-05-19T03:19:22.844Z,14093.00
2023-05-19T03:20:22.784Z,14078.00
2023-05-19T03:21:22.914Z,14057.00
2023-05-19T03:22:22.946Z,14055.00
2023-05-19T03:23:23.037Z,14020.00
2023-05-19T03:24:23.090Z,13998.00
2023-05-19T03:25:23.144Z,13979.00
2023-05-19T03:26:23.198Z,13940.00
2023-05-19T03:27:23.297Z,13927.00
2023-05-19T03:28:23.318Z,13927.00
2023-05-19T03:29:23.345Z,13924.00
2023-05-19T03:30:23.359Z,13930.00
2023-05-19T03:31:23.379Z,13934.00
2023-05-19T03:32:23.473Z,13942.00
2023-05-19T03:33:23.693Z,13958.00
2023-05-19T03:34:23.492Z,13957.00
2023-05-19T03:35:23.492Z,13956.00
2023-05-19T03:36:23.491Z,13950.00
2023-05-19T03:37:23.552Z,13940.00
2023-05-19T03:38:23.633Z,13929.00
2023-05-19T03:39:23.667Z,13921.00
2023-05-19T03:40:23.709Z,13928.00
2023-05-19T03:41:23.771Z,13909.00
2023-05-19T03:42:23.850Z,13900.00
2023-05-19T03:43:23.905Z,13889.00
2023-05-19T03:44:23.955Z,13890.00
2023-05-19T03:45:24.009Z,13889.00
2023-05-19T03:46:24.150Z,13858.00
2023-05-19T03:47:24.247Z,13821.00
2023-05-19T03:48:24.275Z,13809.00
2023-05-19T03:49:24.367Z,13782.00
2023-05-19T03:50:24.409Z,13731.00
2023-05-19T03:51:24.491Z,13695.00
2023-05-19T03:52:24.552Z,13675.00
2023-05-19T03:53:24.661Z,13665.00
2023-05-19T03:54:24.702Z,13673.00
2023-05-19T03:55:24.758Z,13669.00
2023-05-19T03:56:24.829Z,13681.00
2023-05-19T03:57:24.852Z,13705.00
2023-05-19T03:58:24.920Z,13697.00
2023-05-19T03:59:24.943Z,13659.00
2023-05-19T04:00:25.024Z,13657.00
2023-05-19T04:01:25.018Z,13667.00
2023-05-19T04:02:25.168Z,13684.00
2023-05-19T04:03:25.159Z,13685.00
2023-05-19T04:04:25.215Z,13665.00
2023-05-19T04:05:25.206Z,13671.00
2023-05-19T04:06:25.264Z,13682.00
2023-05-19T04:07:25.346Z,13683.00
2023-05-19T04:08:25.365Z,13670.00
2023-05-19T04:09:25.409Z,13682.00
2023-05-19T04:10:25.446Z,13670.00
2023-05-19T04:11:25.499Z,13627.00
2023-05-19T04:12:25.594Z,13579.00
2023-05-19T04:13:25.673Z,13562.00
2023-05-19T04:14:25.701Z,13536.00
2023-05-19T04:15:25.727Z,13522.00
2023-05-19T04:16:25.774Z,13467.00
2023-05-19T04:17:25.845Z,13392.00
2023-05-19T04:18:26.935Z,13344.00
2023-05-19T04:19:25.898Z,13315.00
2023-05-19T04:20:25.913Z,13357.00
2023-05-19T04:21:25.926Z,13365.00
2023-05-19T04:22:25.978Z,13354.00
2023-05-19T04:23:25.945Z,13330.00
2023-05-19T04:24:25.983Z,13312.00
2023-05-19T04:25:25.979Z,13287.00
2023-05-19T04:26:25.988Z,13298.00
2023-05-19T04:27:26.026Z,13313.00
2023-05-19T04:28:26.023Z,13314.00
2023-05-19T04:29:26.023Z,13268.00
2023-05-19T04:30:26.058Z,13244.00
2023-05-19T04:31:26.113Z,13236.00
2023-05-19T04:32:26.173Z,13230.00
2023-05-19T04:33:26.064Z,13250.00
2023-05-19T04:34:26.079Z,13392.00
2023-05-19T04:35:26.060Z,13383.00
2023-05-19T04:36:26.107Z,13371.00
2023-05-19T04:37:26.112Z,13382.00
2023-05-19T04:38:26.098Z,13377.00
2023-05-19T04:39:26.124Z,13370.00
2023-05-19T04:40:26.112Z,13358.00
2023-05-19T04:41:26.144Z,13344.00
2023-05-19T04:42:26.261Z,13304.00
2023-05-19T04:43:26.140Z,13274.00
2023-05-19T04:44:26.170Z,13274.00
2023-05-19T04:45:26.180Z,13274.00
2023-05-19T04:46:26.281Z,13263.00
2023-05-19T04:47:26.272Z,13261.00
2023-05-19T04:48:26.217Z,13255.00
2023-05-19T04:49:26.260Z,13252.00
2023-05-19T04:50:26.263Z,13228.00
2023-05-19T04:51:26.268Z,13230.00
2023-05-19T04:52:26.262Z,13235.00
2023-05-19T04:53:26.264Z,13249.00
2023-05-19T04:54:26.276Z,13290.00
2023-05-19T04:55:26.295Z,13322.00
2023-05-19T04:56:26.298Z,13322.00
2023-05-19T04:57:26.271Z,13312.00
2023-05-19T04:58:26.277Z,13281.00
2023-05-19T04:59:26.265Z,13295.00
2023-05-19T05:00:26.277Z,13341.00
2023-05-19T05:01:26.470Z,13343.00
2023-05-19T05:02:26.324Z,13347.00
2023-05-19T05:03:26.612Z,13356.00
2023-05-19T05:04:26.284Z,13366.00
2023-05-19T05:05:26.280Z,13398.00
2023-05-19T05:06:26.297Z,13389.00
2023-05-19T05:07:26.299Z,13383.00
2023-05-19T05:08:26.288Z,13365.00
2023-05-19T05:09:26.294Z,13415.00
2023-05-19T05:10:26.290Z,13427.00
2023-05-19T05:11:26.298Z,13367.00
2023-05-19T05:12:26.338Z,13366.00
2023-05-19T05:13:26.320Z,13326.00
2023-05-19T05:14:26.322Z,13322.00
2023-05-19T05:15:26.325Z,13351.00
2023-05-19T05:16:26.360Z,13380.00
2023-05-19T05:17:26.404Z,13353.00
2023-05-19T05:18:26.411Z,13178.00
2023-05-19T05:19:26.630Z,13120.00
2023-05-19T05:20:26.544Z,13104.00
2023-05-19T05:21:26.612Z,13146.00
2023-05-19T05:22:26.633Z,13165.00
2023-05-19T05:23:26.655Z,13228.00
2023-05-19T05:24:26.681Z,13200.00
2023-05-19T05:25:26.680Z,12940.00
2023-05-19T05:26:26.681Z,12835.00
2023-05-19T05:27:26.662Z,12961.00
2023-05-19T05:28:26.745Z,13034.00
2023-05-19T05:29:26.715Z,13132.00
2023-05-19T05:30:26.720Z,13148.00
2023-05-19T05:31:26.750Z,13099.00
2023-05-19T05:32:26.834Z,13064.00
2023-05-19T05:33:26.964Z,13050.00
2023-05-19T05:34:26.861Z,13073.00
2023-05-19T05:35:26.872Z,13073.00
2023-05-19T05:36:26.936Z,13086.00
2023-05-19T05:37:26.908Z,13101.00
2023-05-19T05:38:26.977Z,13147.00
2023-05-19T05:39:27.088Z,13226.00
2023-05-19T05:40:27.135Z,13279.00
2023-05-19T05:41:27.186Z,13291.00
2023-05-19T05:42:28.979Z,13273.00
2023-05-19T05:43:27.301Z,13306.00
2023-05-19T05:44:27.340Z,13322.00
2023-05-19T05:45:27.405Z,13298.00
2023-05-19T05:46:27.494Z,13252.00
2023-05-19T05:47:27.422Z,13254.00
2023-05-19T05:48:27.445Z,13270.00
2023-05-19T05:49:27.399Z,13273.00
2023-05-19T05:50:27.365Z,13217.00
2023-05-19T05:51:27.280Z,13275.00
2023-05-19T05:52:27.239Z,13263.00
2023-05-19T05:53:27.202Z,13157.00
2023-05-19T05:54:27.176Z,13113.00
2023-05-19T05:55:27.187Z,13114.00
2023-05-19T05:56:27.162Z,13063.00
2023-05-19T05:57:27.152Z,13034.00
2023-05-19T05:58:27.149Z,12997.00
2023-05-19T05:59:27.097Z,12993.00
2023-05-19T06:00:27.046Z,12969.00
2023-05-19T06:01:27.061Z,12942.00
2023-05-19T06:02:27.099Z,12943.00
2023-05-19T06:03:27.136Z,12900.00
2023-05-19T06:04:27.019Z,12958.00
2023-05-19T06:05:27.171Z,12971.00
2023-05-19T06:06:27.100Z,12851.00
2023-05-19T06:07:27.086Z,12775.00
2023-05-19T06:08:27.165Z,12841.00
2023-05-19T06:09:27.081Z,12844.00
2023-05-19T06:10:27.039Z,12885.00
2023-05-19T06:11:27.084Z,12959.00
2023-05-19T06:12:27.039Z,13105.00
2023-05-19T06:13:26.938Z,13252.00
2023-05-19T06:14:26.908Z,13018.00
2023-05-19T06:15:26.850Z,13019.00
2023-05-19T06:16:26.851Z,13097.00
2023-05-19T06:17:26.843Z,13071.00
2023-05-19T06:18:26.792Z,12900.00
2023-05-19T06:19:26.796Z,12685.00
2023-05-19T06:20:26.686Z,12749.00
2023-05-19T06:21:26.709Z,12916.00
2023-05-19T06:22:26.750Z,13187.00
2023-05-19T06:23:26.788Z,13288.00
2023-05-19T06:24:26.720Z,13278.00
2023-05-19T06:25:26.763Z,13255.00
2023-05-19T06:26:26.787Z,13340.00
2023-05-19T06:27:26.792Z,13530.00
2023-05-19T06:28:26.795Z,13524.00
2023-05-19T06:29:26.812Z,13396.00
2023-05-19T06:30:26.792Z,13265.00
2023-05-19T06:31:26.855Z,12922.00
2023-05-19T06:32:26.776Z,12797.00
2023-05-19T06:33:28.960Z,12584.00
2023-05-19T06:34:26.908Z,12518.00
2023-05-19T06:35:26.882Z,12542.00
2023-05-19T06:36:26.921Z,12579.00
2023-05-19T06:37:26.920Z,12592.00
2023-05-19T06:38:26.898Z,12658.00
2023-05-19T06:39:26.892Z,12688.00
2023-05-19T06:40:26.963Z,12628.00
2023-05-19T06:41:26.863Z,12593.00
2023-05-19T06:42:26.920Z,12582.00
2023-05-19T06:43:26.920Z,12539.00
2023-05-19T06:44:26.903Z,12389.00
2023-05-19T06:45:26.871Z,12399.00
2023-05-19T06:46:26.916Z,12288.00
2023-05-19T06:47:26.927Z,12205.00
2023-05-19T06:48:26.922Z,12325.00
2023-05-19T06:49:26.953Z,12370.00
2023-05-19T06:50:26.959Z,12301.00
2023-05-19T06:51:26.973Z,12296.00
2023-05-19T06:52:26.958Z,12275.00
2023-05-19T06:53:26.978Z,12244.00
2023-05-19T06:54:27.021Z,12311.00
2023-05-19T06:55:26.989Z,12323.00
2023-05-19T06:56:26.985Z,12269.00
2023-05-19T06:57:26.987Z,12152.00
2023-05-19T06:58:27.002Z,11934.00
2023-05-19T06:59:27.021Z,11948.00
2023-05-19T07:00:27.031Z,11820.00
2023-05-19T07:01:27.026Z,11718.00
2023-05-19T07:02:27.024Z,11675.00
2023-05-19T07:03:27.080Z,11573.00
2023-05-19T07:04:26.951Z,11439.00
2023-05-19T07:05:26.917Z,11500.00
2023-05-19T07:06:26.906Z,11480.00
2023-05-19T07:07:26.874Z,11491.00
2023-05-19T07:08:26.902Z,11525.00
2023-05-19T07:09:26.882Z,11410.00
2023-05-19T07:10:26.943Z,11310.00
2023-05-19T07:11:26.915Z,11206.00
2023-05-19T07:12:26.927Z,11155.00
2023-05-19T07:13:27.555Z,11159.00
2023-05-19T07:14:26.924Z,11093.00
2023-05-19T07:15:26.949Z,11010.00
2023-05-19T07:16:26.932Z,10892.00
2023-05-19T07:17:26.944Z,10883.00
2023-05-19T07:18:26.922Z,10910.00
2023-05-19T07:19:26.938Z,10925.00
2023-05-19T07:20:26.908Z,10886.00
2023-05-19T07:21:26.829Z,10829.00
2023-05-19T07:22:26.824Z,10796.00
2023-05-19T07:23:26.799Z,10905.00
2023-05-19T07:24:26.816Z,10832.00
2023-05-19T07:25:26.760Z,10783.00
2023-05-19T07:26:26.779Z,10778.00
2023-05-19T07:27:26.766Z,10859.00
2023-05-19T07:28:26.792Z,10774.00
2023-05-19T07:29:27.598Z,10664.00
2023-05-19T07:30:26.781Z,10619.00
2023-05-19T07:31:26.807Z,10608.00
2023-05-19T07:32:26.824Z,10241.00
2023-05-19T07:33:26.720Z,10699.00
2023-05-19T07:34:26.709Z,10728.00
2023-05-19T07:35:26.667Z,10525.00
2023-05-19T07:36:26.626Z,10225.00
2023-05-19T07:37:26.641Z,10035.00
2023-05-19T07:38:26.667Z,9909.00
2023-05-19T07:39:26.522Z,9844.00
2023-05-19T07:40:26.482Z,9640.00
2023-05-19T07:41:26.447Z,9390.00
2023-05-19T07:42:26.544Z,9399.00
2023-05-19T07:43:26.351Z,9380.00
2023-05-19T07:44:26.363Z,9584.00
2023-05-19T07:45:26.316Z,9713.00
2023-05-19T07:46:26.359Z,9581.00
2023-05-19T07:47:26.319Z,9604.00
2023-05-19T07:48:26.284Z,9609.00
2023-05-19T07:49:26.217Z,9570.00
2023-05-19T07:50:26.251Z,9483.00
2023-05-19T07:51:26.121Z,9524.00
2023-05-19T07:52:26.240Z,9322.00
2023-05-19T07:53:26.036Z,9278.00
2023-05-19T07:54:26.026Z,9187.00
2023-05-19T07:55:25.924Z,9049.00
2023-05-19T07:56:25.887Z,9104.00
2023-05-19T07:57:25.948Z,9219.00
2023-05-19T07:58:25.831Z,9064.00
2023-05-19T07:59:25.751Z,9110.00
2023-05-19T08:00:25.758Z,9124.00
2023-05-19T08:01:25.874Z,8885.00
2023-05-19T08:02:25.801Z,8864.00
2023-05-19T08:03:25.833Z,8782.00
2023-05-19T08:04:25.689Z,8588.00
2023-05-19T08:05:25.676Z,8431.00
2023-05-19T08:06:25.622Z,8354.00
2023-05-19T08:07:25.590Z,8316.00
2023-05-19T08:08:25.571Z,8313.00
2023-05-19T08:09:25.569Z,8504.00
2023-05-19T08:10:25.545Z,8606.00
2023-05-19T08:11:25.544Z,8483.00
2023-05-19T08:12:25.580Z,8442.00
2023-05-19T08:13:26.121Z,8338.00
2023-05-19T08:14:25.565Z,8141.00
2023-05-19T08:15:25.602Z,8257.00
2023-05-19T08:16:25.677Z,8476.00
2023-05-19T08:17:25.533Z,8297.00
2023-05-19T08:18:25.483Z,8297.00
2023-05-19T08:19:25.475Z,8441.00
2023-05-19T08:20:25.421Z,8175.00
2023-05-19T08:21:25.385Z,8291.00
2023-05-19T08:22:27.162Z,8482.00
2023-05-19T08:23:25.369Z,8345.00
2023-05-19T08:24:25.393Z,8367.00
2023-05-19T08:25:25.306Z,8275.00
2023-05-19T08:26:25.286Z,8575.00
2023-05-19T08:27:25.314Z,8552.00
2023-05-19T08:28:25.280Z,8309.00
2023-05-19T08:29:25.282Z,8214.00
2023-05-19T08:30:25.248Z,8183.00
2023-05-19T08:31:26.159Z,8101.00
2023-05-19T08:32:25.320Z,8179.00
2023-05-19T08:33:25.278Z,8113.00
2023-05-19T08:34:26.122Z,8130.00
2023-05-19T08:35:25.210Z,8018.00
2023-05-19T08:36:25.328Z,7869.00
2023-05-19T08:37:25.278Z,7987.00
2023-05-19T08:38:25.204Z,8077.00
2023-05-19T08:39:25.159Z,7994.00
2023-05-19T08:40:25.094Z,8078.00
2023-05-19T08:41:25.059Z,7942.00
2023-05-19T08:42:25.034Z,7851.00
2023-05-19T08:43:25.016Z,7773.00
2023-05-19T08:44:24.981Z,7637.00
2023-05-19T08:45:24.954Z,7582.00
2023-05-19T08:46:24.975Z,7476.00
2023-05-19T08:47:24.930Z,7538.00
2023-05-19T08:48:24.829Z,7645.00
2023-05-19T08:49:25.717Z,7616.00
2023-05-19T08:50:24.799Z,7531.00
2023-05-19T08:51:24.754Z,7392.00
2023-05-19T08:52:24.702Z,7509.00
2023-05-19T08:54:25.638Z,7603.00
2023-05-19T08:55:24.532Z,7616.00
2023-05-19T08:56:24.497Z,7692.00
2023-05-19T08:57:24.467Z,7815.00
2023-05-19T08:58:24.733Z,7913.00
2023-05-19T08:59:24.350Z,7865.00
2023-05-19T09:00:24.315Z,7627.00
2023-05-19T09:01:24.356Z,7545.00
2023-05-19T09:02:24.388Z,7807.00
2023-05-19T09:03:24.501Z,7838.00
2023-05-19T09:04:24.211Z,7938.00
2023-05-19T09:05:24.074Z,8058.00
2023-05-19T09:06:24.690Z,7961.00
2023-05-19T09:07:24.048Z,7921.00
2023-05-19T09:08:24.008Z,7840.00
2023-05-19T09:09:23.982Z,7615.00
2023-05-19T09:10:23.929Z,7392.00
2023-05-19T09:11:23.857Z,7454.00
2023-05-19T09:12:23.885Z,7491.00
2023-05-19T09:13:23.841Z,7727.00
2023-05-19T09:14:23.832Z,7726.00
2023-05-19T09:15:23.834Z,7618.00
2023-05-19T09:16:23.923Z,7426.00
2023-05-19T09:17:23.871Z,7236.00
2023-05-19T09:18:23.820Z,6973.00
2023-05-19T09:19:23.915Z,7076.00
2023-05-19T09:20:23.742Z,7175.00
2023-05-19T09:21:23.716Z,7179.00
2023-05-19T09:22:23.706Z,7335.00
2023-05-19T09:23:23.667Z,7470.00
2023-05-19T09:24:23.637Z,7339.00
2023-05-19T09:25:23.565Z,7440.00
2023-05-19T09:26:23.540Z,7080.00
2023-05-19T09:27:23.519Z,7311.00
2023-05-19T09:28:23.513Z,7318.00
2023-05-19T09:29:23.455Z,7043.00
2023-05-19T09:30:23.396Z,7130.00
2023-05-19T09:31:23.363Z,7037.00
2023-05-19T09:32:23.333Z,6936.00
2023-05-19T09:33:23.224Z,7065.00
2023-05-19T09:34:23.228Z,6838.00
2023-05-19T09:35:23.123Z,6533.00
2023-05-19T09:36:23.064Z,6564.00
2023-05-19T09:37:23.011Z,6440.00
2023-05-19T09:38:23.031Z,6612.00
2023-05-19T09:39:22.934Z,6819.00
2023-05-19T09:40:22.863Z,6809.00
2023-05-19T09:41:22.783Z,6830.00
2023-05-19T09:42:22.747Z,6914.00
2023-05-19T09:43:23.129Z,6794.00
2023-05-19T09:44:22.584Z,6593.00
2023-05-19T09:45:22.497Z,6664.00
2023-05-19T09:46:22.551Z,6720.00
2023-05-19T09:47:22.467Z,6315.00
2023-05-19T09:48:22.344Z,6357.00
2023-05-19T09:49:22.324Z,6362.00
2023-05-19T09:50:22.232Z,5956.00
2023-05-19T09:51:22.198Z,5248.00
2023-05-19T09:52:22.133Z,5411.00
2023-05-19T09:53:22.089Z,5730.00
2023-05-19T09:54:22.057Z,5893.00
2023-05-19T09:55:21.971Z,5193.00
2023-05-19T09:56:21.883Z,3999.00
2023-05-19T09:57:24.656Z,2534.00
2023-05-19T09:58:21.722Z,1561.00
2023-05-19T09:59:21.626Z,914.00
2023-05-19T10:00:21.551Z,613.00
2023-05-19T10:01:21.507Z,655.00
2023-05-19T10:02:21.343Z,577.00
2023-05-19T10:03:21.187Z,500.00
2023-05-19T10:04:21.119Z,444.00
2023-05-19T10:05:21.054Z,443.00
2023-05-19T10:06:20.941Z,518.00
2023-05-19T10:07:20.848Z,484.00
2023-05-19T10:08:20.729Z,529.00
2023-05-19T10:09:20.598Z,632.00
2023-05-19T10:10:20.552Z,498.00
2023-05-19T10:11:20.509Z,638.00
2023-05-19T10:12:20.342Z,814.00
2023-05-19T10:13:20.247Z,551.00
2023-05-19T10:14:20.122Z,535.00
2023-05-19T10:15:22.232Z,704.00
2023-05-19T10:16:19.929Z,708.00
2023-05-19T10:17:19.921Z,805.00
2023-05-19T10:18:19.690Z,918.00
2023-05-19T10:19:19.633Z,1032.00
2023-05-19T10:20:19.529Z,1324.00
2023-05-19T10:21:19.389Z,838.00
2023-05-19T10:22:19.301Z,906.00
2023-05-19T10:23:19.221Z,752.00
2023-05-19T10:24:19.115Z,710.00
2023-05-19T10:25:19.057Z,828.00
2023-05-19T10:26:18.983Z,1320.00
2023-05-19T10:27:18.844Z,1418.00
2023-05-19T10:28:18.757Z,1049.00
2023-05-19T10:29:18.673Z,760.00
2023-05-19T10:30:18.660Z,946.00
2023-05-19T10:31:18.511Z,998.00
2023-05-19T10:32:18.463Z,1272.00
2023-05-19T10:33:18.452Z,1122.00
2023-05-19T10:34:18.206Z,1169.00
2023-05-19T10:35:18.128Z,1178.00
2023-05-19T10:36:18.083Z,1383.00
2023-05-19T10:37:17.849Z,1536.00
2023-05-19T10:38:17.769Z,1614.00
2023-05-19T10:39:17.734Z,1690.00
2023-05-19T10:40:17.529Z,1428.00
2023-05-19T10:41:17.418Z,1168.00
2023-05-19T10:42:17.326Z,696.00
2023-05-19T10:43:17.242Z,579.00
2023-05-19T10:44:19.152Z,596.00
2023-05-19T10:45:17.032Z,941.00
2023-05-19T10:46:16.910Z,1212.00
2023-05-19T10:47:16.938Z,1621.00
2023-05-19T10:48:16.831Z,1205.00
2023-05-19T10:49:16.692Z,1240.00
2023-05-19T10:50:16.619Z,1585.00
2023-05-19T10:51:16.537Z,1409.00
2023-05-19T10:52:16.440Z,1305.00
2023-05-19T10:53:19.272Z,1214.00
2023-05-19T10:54:16.233Z,1690.00
2023-05-19T10:55:16.100Z,1565.00
2023-05-19T10:56:15.952Z,1425.00
2023-05-19T10:57:15.776Z,1251.00
2023-05-19T10:58:15.647Z,1661.00
2023-05-19T10:59:15.498Z,1714.00
2023-05-19T11:00:15.380Z,1805.00
2023-05-19T11:01:15.200Z,2213.00
2023-05-19T11:02:15.320Z,2602.00
2023-05-19T11:03:14.969Z,2464.00
2023-05-19T11:04:14.777Z,2386.00
2023-05-19T11:05:14.677Z,3083.00
2023-05-19T11:06:14.452Z,3077.00
2023-05-19T11:07:14.268Z,2426.00
2023-05-19T11:08:14.135Z,2301.00
2023-05-19T11:09:14.022Z,2310.00
2023-05-19T11:10:13.924Z,2593.00
2023-05-19T11:11:13.685Z,2175.00
2023-05-19T11:12:13.548Z,2323.00
2023-05-19T11:14:13.326Z,2075.00
2023-05-19T11:15:13.170Z,2110.00
2023-05-19T11:16:13.085Z,2162.00
2023-05-19T11:17:12.939Z,2332.00
2023-05-19T11:18:12.895Z,1715.00
2023-05-19T11:19:12.697Z,1608.00
2023-05-19T11:20:12.589Z,1822.00
2023-05-19T11:21:12.507Z,1664.00
2023-05-19T11:22:12.410Z,1833.00
2023-05-19T11:23:12.296Z,1680.00
2023-05-19T11:24:12.184Z,1966.00
2023-05-19T11:25:12.075Z,2019.00
2023-05-19T11:26:11.923Z,2272.00
2023-05-19T11:27:11.825Z,1771.00
2023-05-19T11:28:11.686Z,1766.00
2023-05-19T11:29:12.172Z,1745.00
2023-05-19T11:30:11.618Z,1540.00
2023-05-19T11:31:11.345Z,1413.00
2023-05-19T11:32:12.311Z,1611.00
2023-05-19T11:33:11.198Z,1413.00
2023-05-19T11:34:10.997Z,1308.00
2023-05-19T11:35:10.853Z,1548.00
2023-05-19T11:36:10.717Z,1692.00
2023-05-19T11:37:10.744Z,1448.00
2023-05-19T11:38:10.538Z,1687.00
2023-05-19T11:39:10.366Z,1662.00
2023-05-19T11:40:10.253Z,2224.00
2023-05-19T11:41:10.116Z,1835.00
2023-05-19T11:42:10.007Z,1598.00
2023-05-19T11:43:09.926Z,1983.00
2023-05-19T11:44:09.805Z,1394.00
2023-05-19T11:45:09.664Z,1489.00
2023-05-19T11:46:09.702Z,1505.00
2023-05-19T11:47:09.525Z,1617.00
2023-05-19T11:48:09.407Z,1610.00
2023-05-19T11:49:09.339Z,1567.00
2023-05-19T11:50:09.201Z,1557.00
2023-05-19T11:51:09.165Z,1998.00
2023-05-19T11:52:09.074Z,2611.00
2023-05-19T11:53:08.992Z,2778.00
2023-05-19T11:54:08.903Z,2255.00